createdAt,value
2018-07-23T00:02:21.175Z,22.60
2018-07-23T00:04:50.406Z,13.50
2018-07-23T00:07:18.914Z,13.73
2018-07-23T00:09:47.484Z,24.27
2018-07-23T00:12:16.426Z,30.27
2018-07-23T00:14:45.018Z,16.33
2018-07-23T00:17:14.246Z,10.93
2018-07-23T00:19:42.882Z,10.00
2018-07-23T00:22:11.137Z,9.43
2018-07-23T00:24:39.641Z,11.67
2018-07-23T00:27:08.278Z,10.33
2018-07-23T00:29:36.833Z,9.53
2018-07-23T00:32:05.938Z,8.30
2018-07-23T00:34:34.512Z,11.50
2018-07-23T00:37:03.066Z,8.57
2018-07-23T00:39:31.668Z,10.13
2018-07-23T00:42:00.136Z,9.93
2018-07-23T00:44:28.614Z,12.67
2018-07-23T00:46:57.148Z,9.60
2018-07-23T00:49:25.786Z,12.33
2018-07-23T00:51:54.269Z,26.87
2018-07-23T00:54:22.779Z,22.50
2018-07-23T00:56:51.408Z,27.20
2018-07-23T00:59:19.914Z,14.90
2018-07-23T01:01:48.458Z,15.50
2018-07-23T01:04:16.925Z,15.37
2018-07-23T01:06:45.435Z,11.37
2018-07-23T01:09:14.088Z,10.00
2018-07-23T01:11:42.624Z,14.03
2018-07-23T01:14:10.782Z,11.90
2018-07-23T01:16:39.322Z,9.67
2018-07-23T01:19:07.793Z,9.43
2018-07-23T01:21:36.501Z,21.57
2018-07-23T01:24:05.151Z,12.20
2018-07-23T01:26:33.626Z,10.60
2018-07-23T01:29:02.303Z,20.50
2018-07-23T01:31:30.748Z,12.67
2018-07-23T01:33:59.263Z,11.80
2018-07-23T01:36:27.949Z,10.40
2018-07-23T01:38:56.668Z,11.80
2018-07-23T01:41:25.193Z,9.27
2018-07-23T01:43:53.680Z,12.50
2018-07-23T01:46:21.862Z,13.43
2018-07-23T01:48:50.421Z,10.23
2018-07-23T01:51:19.000Z,13.37
2018-07-23T01:53:48.166Z,11.83
2018-07-23T01:56:17.130Z,22.47
2018-07-23T01:58:45.564Z,13.23
2018-07-23T02:01:14.685Z,14.20
2018-07-23T02:03:43.180Z,11.97
2018-07-23T02:06:11.822Z,15.20
2018-07-23T02:08:40.357Z,14.60
2018-07-23T02:11:08.802Z,37.67
2018-07-23T02:13:37.308Z,37.17
2018-07-23T02:16:06.021Z,43.33
2018-07-23T02:18:34.654Z,20.60
2018-07-23T02:21:03.238Z,13.93
2018-07-23T02:23:31.823Z,14.17
2018-07-23T02:26:00.469Z,36.40
2018-07-23T02:36:50.196Z,13.13
2018-07-23T02:39:18.660Z,32.27
2018-07-23T02:41:47.106Z,22.40
2018-07-23T02:44:15.551Z,17.53
2018-07-23T02:46:44.072Z,14.87
2018-07-23T02:49:12.517Z,12.20
2018-07-23T02:51:40.932Z,14.10
2018-07-23T02:54:09.392Z,12.97
2018-07-23T02:56:37.899Z,14.97
2018-07-23T02:59:06.545Z,19.23
2018-07-23T03:01:34.984Z,24.47
2018-07-23T03:04:03.508Z,29.23
2018-07-23T03:06:32.053Z,16.97
2018-07-23T03:09:00.496Z,12.30
2018-07-23T03:11:29.002Z,20.13
2018-07-23T03:13:57.110Z,27.07
2018-07-23T03:16:25.551Z,16.17
2018-07-23T03:18:54.077Z,14.97
2018-07-23T03:21:22.608Z,15.93
2018-07-23T03:23:51.545Z,12.27
2018-07-23T03:26:20.817Z,9.83
2018-07-23T03:28:50.059Z,18.53
2018-07-23T03:31:18.578Z,19.97
2018-07-23T03:33:47.037Z,13.97
2018-07-23T03:36:15.567Z,10.03
2018-07-23T03:38:44.087Z,12.50
2018-07-23T03:41:12.578Z,13.37
2018-07-23T03:43:41.081Z,16.60
2018-07-23T03:46:09.700Z,17.83
2018-07-23T03:48:38.178Z,16.93
2018-07-23T03:51:07.525Z,22.03
2018-07-23T03:53:36.284Z,24.90
2018-07-23T03:56:04.775Z,33.47
2018-07-23T03:58:33.255Z,24.47
2018-07-23T04:01:01.751Z,19.07
2018-07-23T04:03:30.923Z,16.20
2018-07-23T04:05:59.341Z,16.43
2018-07-23T04:08:27.792Z,13.97
2018-07-23T04:10:56.297Z,12.53
2018-07-23T04:13:25.962Z,23.97
2018-07-23T04:15:55.092Z,17.43
2018-07-23T04:18:23.637Z,13.60
2018-07-23T04:20:52.162Z,28.60
2018-07-23T04:23:21.271Z,38.03
2018-07-23T04:25:49.746Z,26.03
2018-07-23T04:28:18.316Z,15.90
2018-07-23T04:30:46.806Z,37.53
2018-07-23T04:33:15.802Z,27.60
2018-07-23T04:35:45.540Z,33.97
2018-07-23T04:38:14.092Z,22.30
2018-07-23T04:40:43.320Z,25.97
2018-07-23T04:43:11.809Z,29.33
2018-07-23T04:45:40.340Z,29.63
2018-07-23T04:48:09.038Z,18.27
2018-07-23T04:50:37.592Z,15.30
2018-07-23T04:53:06.098Z,12.60
2018-07-23T04:55:34.590Z,12.27
2018-07-23T04:58:03.055Z,13.93
2018-07-23T05:00:31.569Z,12.40
2018-07-23T05:03:00.006Z,12.13
2018-07-23T05:05:28.572Z,13.17
2018-07-23T05:07:57.030Z,11.93
2018-07-23T05:10:25.601Z,12.63
2018-07-23T05:12:54.641Z,14.40
2018-07-23T05:15:22.744Z,11.97
2018-07-23T05:17:51.337Z,11.80
2018-07-23T05:20:20.358Z,12.70
2018-07-23T05:22:49.442Z,13.93
2018-07-23T05:25:18.127Z,12.90
2018-07-23T05:27:46.684Z,23.70
2018-07-23T05:30:15.202Z,28.03
2018-07-23T05:32:43.834Z,40.63
2018-07-23T05:35:12.378Z,44.20
2018-07-23T05:37:40.905Z,38.50
2018-07-23T05:40:09.542Z,22.23
2018-07-23T05:42:38.475Z,16.97
2018-07-23T05:45:07.573Z,14.97
2018-07-23T05:47:36.050Z,17.10
2018-07-23T05:50:05.080Z,19.40
2018-07-23T05:52:33.562Z,36.07
2018-07-23T05:55:02.988Z,26.90
2018-07-23T05:57:38.022Z,26.27
2018-07-23T06:00:06.665Z,47.43
2018-07-23T06:02:35.128Z,52.20
2018-07-23T06:05:03.677Z,48.90
2018-07-23T06:07:32.081Z,52.37
2018-07-23T06:10:00.608Z,28.63
2018-07-23T06:12:29.268Z,46.20
2018-07-23T06:14:57.688Z,35.83
2018-07-23T06:17:26.243Z,22.03
2018-07-23T06:19:54.811Z,43.37
2018-07-23T06:22:23.293Z,47.97
2018-07-23T06:24:51.714Z,46.37
2018-07-23T06:27:20.207Z,21.63
2018-07-23T06:29:48.783Z,19.27
2018-07-23T06:32:17.406Z,27.43
2018-07-23T06:34:45.852Z,19.50
2018-07-23T06:37:14.478Z,16.90
2018-07-23T06:39:43.689Z,18.37
2018-07-23T06:42:12.224Z,33.77
2018-07-23T06:44:40.677Z,29.23
2018-07-23T06:47:09.894Z,30.37
2018-07-23T06:49:39.056Z,39.23
2018-07-23T06:52:07.907Z,25.43
2018-07-23T06:54:36.405Z,18.30
2018-07-23T06:57:05.034Z,28.90
2018-07-23T06:59:33.835Z,21.87
2018-07-23T07:02:03.194Z,23.27
2018-07-23T07:04:31.670Z,17.17
2018-07-23T07:07:00.254Z,28.93
2018-07-23T07:09:29.378Z,21.77
2018-07-23T07:11:58.078Z,18.13
2018-07-23T07:14:26.319Z,15.40
2018-07-23T07:16:54.862Z,15.33
2018-07-23T07:19:23.397Z,23.33
2018-07-23T07:21:52.004Z,31.87
2018-07-23T07:24:20.541Z,26.00
2018-07-23T07:26:49.071Z,21.57
2018-07-23T07:29:17.520Z,18.10
2018-07-23T07:31:45.991Z,39.07
2018-07-23T07:34:14.662Z,21.50
2018-07-23T07:36:43.149Z,25.20
2018-07-23T07:39:12.896Z,19.17
2018-07-23T07:41:41.784Z,16.97
2018-07-23T07:44:11.201Z,41.07
2018-07-23T07:46:40.734Z,39.93
2018-07-23T07:49:09.426Z,25.83
2018-07-23T07:51:37.903Z,39.10
2018-07-23T07:54:06.460Z,35.37
2018-07-23T07:56:35.021Z,37.47
2018-07-23T07:59:03.553Z,39.63
2018-07-23T08:01:32.090Z,26.80
2018-07-23T08:04:00.785Z,39.40
2018-07-23T08:06:29.334Z,22.93
2018-07-23T08:08:57.886Z,27.97
2018-07-23T08:11:27.049Z,25.63
2018-07-23T08:13:55.560Z,28.90
2018-07-23T08:16:24.234Z,31.50
2018-07-23T08:18:52.821Z,33.67
2018-07-23T08:21:21.299Z,34.40
2018-07-23T08:23:49.909Z,35.80
2018-07-23T08:26:19.168Z,34.40
2018-07-23T08:28:47.833Z,28.50
2018-07-23T08:31:16.688Z,32.63
2018-07-23T08:33:45.292Z,36.40
2018-07-23T08:36:13.869Z,33.87
2018-07-23T08:38:43.148Z,36.67
2018-07-23T08:41:11.801Z,30.30
2018-07-23T08:43:40.675Z,33.20
2018-07-23T08:46:09.277Z,35.90
2018-07-23T08:48:37.872Z,32.10
2018-07-23T08:51:06.602Z,35.08
2018-07-23T08:53:35.567Z,30.08
2018-07-23T08:56:04.112Z,30.60
2018-07-23T08:58:32.624Z,23.90
2018-07-23T09:01:01.179Z,24.60
2018-07-23T09:03:29.714Z,29.10
2018-07-23T09:05:58.258Z,22.27
2018-07-23T09:08:27.176Z,25.10
2018-07-23T09:10:55.431Z,30.05
2018-07-23T09:13:23.964Z,29.98
2018-07-23T09:15:52.504Z,29.02
2018-07-23T09:18:21.621Z,25.62
2018-07-23T09:20:50.118Z,22.90
2018-07-23T09:23:18.653Z,24.47
2018-07-23T09:25:48.122Z,22.07
2018-07-23T09:28:17.762Z,16.62
2018-07-23T09:30:50.325Z,21.48
2018-07-23T09:33:19.421Z,19.70
2018-07-23T09:35:48.300Z,21.85
2018-07-23T09:38:16.803Z,23.65
2018-07-23T09:40:45.901Z,15.32
2018-07-23T09:43:14.573Z,24.92
2018-07-23T09:45:43.633Z,25.15
2018-07-23T09:48:12.347Z,17.00
2018-07-23T09:50:41.460Z,26.37
2018-07-23T09:53:09.942Z,22.15
2018-07-23T09:55:38.538Z,19.67
2018-07-23T09:58:07.152Z,17.02
2018-07-23T10:00:41.059Z,22.52
2018-07-23T10:03:09.657Z,22.77
2018-07-23T10:05:38.267Z,21.30
2018-07-23T10:08:08.805Z,20.35
2018-07-23T10:10:37.337Z,16.57
2018-07-23T10:13:05.881Z,15.85
2018-07-23T10:15:34.432Z,13.60
2018-07-23T10:18:03.315Z,13.05
2018-07-23T10:20:32.078Z,16.27
2018-07-23T10:23:00.502Z,15.85
2018-07-23T10:25:29.091Z,17.48
2018-07-23T10:27:57.722Z,13.30
2018-07-23T10:30:26.367Z,14.60
2018-07-23T10:32:54.990Z,10.43
2018-07-23T10:35:23.682Z,14.98
2018-07-23T10:37:52.241Z,14.93
2018-07-23T10:40:21.199Z,16.82
2018-07-23T10:42:49.767Z,14.45
2018-07-23T10:45:19.055Z,14.85
2018-07-23T10:47:47.641Z,10.32
2018-07-23T10:50:16.434Z,13.88
2018-07-23T10:52:44.948Z,14.73
2018-07-23T10:55:13.447Z,13.03
2018-07-23T10:57:42.118Z,10.13
2018-07-23T11:00:11.515Z,12.73
2018-07-23T11:02:40.196Z,13.10
2018-07-23T11:05:09.516Z,10.60
2018-07-23T11:07:38.269Z,10.50
2018-07-23T11:10:07.658Z,12.80
2018-07-23T11:12:36.925Z,12.25
2018-07-23T11:15:07.639Z,11.78
2018-07-23T11:17:36.792Z,10.28
2018-07-23T11:20:07.067Z,13.25
2018-07-23T11:22:36.417Z,13.50
2018-07-23T11:25:38.414Z,13.25
2018-07-23T11:27:34.125Z,12.45
2018-07-23T11:30:02.986Z,12.65
2018-07-23T11:32:31.725Z,13.03
2018-07-23T11:35:00.403Z,11.90
2018-07-23T11:37:29.022Z,11.73
2018-07-23T11:39:57.510Z,9.70
2018-07-23T11:42:26.066Z,9.90
2018-07-23T11:44:55.493Z,9.80
2018-07-23T11:47:24.549Z,13.03
2018-07-23T11:49:53.158Z,11.22
2018-07-23T11:52:21.623Z,12.37
2018-07-23T11:54:50.233Z,9.75
2018-07-23T11:57:19.490Z,10.63
2018-07-23T11:59:47.999Z,11.03
2018-07-23T12:02:16.203Z,10.28
2018-07-23T12:04:45.003Z,10.48
2018-07-23T12:07:13.529Z,8.45
2018-07-23T12:09:42.358Z,8.00
2018-07-23T12:12:11.227Z,9.88
2018-07-23T12:14:39.837Z,9.08
2018-07-23T12:17:08.534Z,11.03
2018-07-23T12:19:37.166Z,10.48
2018-07-23T12:22:05.522Z,10.90
2018-07-23T12:24:34.005Z,7.87
2018-07-23T12:27:02.667Z,10.60
2018-07-23T12:29:31.649Z,8.43
2018-07-23T12:32:00.210Z,10.03
2018-07-23T12:34:28.640Z,11.38
2018-07-23T12:36:57.219Z,9.58
2018-07-23T12:39:26.054Z,12.78
2018-07-23T12:41:54.519Z,13.58
2018-07-23T12:44:23.120Z,9.05
2018-07-23T12:46:51.473Z,13.10
2018-07-23T12:49:20.603Z,11.43
2018-07-23T12:51:49.989Z,13.20
2018-07-23T12:54:18.494Z,13.13
2018-07-23T12:56:46.983Z,11.90
2018-07-23T12:59:15.496Z,10.53
2018-07-23T13:01:44.088Z,10.18
2018-07-23T13:04:12.981Z,11.80
2018-07-23T13:06:41.782Z,10.32
2018-07-23T13:09:12.275Z,12.47
2018-07-23T13:11:41.116Z,9.58
2018-07-23T13:14:09.845Z,13.03
2018-07-23T13:16:38.648Z,10.65
2018-07-23T13:19:07.291Z,12.80
2018-07-23T13:21:36.036Z,10.68
2018-07-23T13:24:04.666Z,11.97
2018-07-23T13:26:33.242Z,13.50
2018-07-23T13:29:01.534Z,11.38
2018-07-23T13:31:30.035Z,11.83
2018-07-23T13:33:58.697Z,13.15
2018-07-23T13:36:27.632Z,9.50
2018-07-23T13:38:57.231Z,10.00
2018-07-23T13:41:25.940Z,11.35
2018-07-23T13:43:54.629Z,9.88
2018-07-23T13:46:23.144Z,12.10
2018-07-23T13:48:51.783Z,10.80
2018-07-23T13:51:20.333Z,10.00
2018-07-23T13:53:49.675Z,14.23
2018-07-23T13:56:18.380Z,15.78
2018-07-23T13:58:47.086Z,9.90
2018-07-23T14:01:15.239Z,11.88
2018-07-23T14:03:43.718Z,15.50
2018-07-23T14:06:12.782Z,13.75
2018-07-23T14:08:41.359Z,14.75
2018-07-23T14:11:10.015Z,14.45
2018-07-23T14:13:38.520Z,15.35
2018-07-23T14:16:07.342Z,15.18
2018-07-23T14:18:35.975Z,14.63
2018-07-23T14:21:04.541Z,13.58
2018-07-23T14:23:33.271Z,12.00
2018-07-23T14:26:02.164Z,14.78
2018-07-23T14:28:30.889Z,15.32
2018-07-23T14:30:59.341Z,15.10
2018-07-23T14:33:28.055Z,15.00
2018-07-23T14:35:56.694Z,15.20
2018-07-23T14:38:25.908Z,14.73
2018-07-23T14:40:55.991Z,14.25
2018-07-23T14:43:24.472Z,13.95
2018-07-23T14:45:53.207Z,16.48
2018-07-23T14:48:21.761Z,15.43
2018-07-23T14:50:51.111Z,12.33
2018-07-23T14:53:19.251Z,14.87
2018-07-23T14:55:48.044Z,11.70
2018-07-23T14:58:16.619Z,13.62
2018-07-23T15:00:45.101Z,12.82
2018-07-23T15:03:13.560Z,9.35
2018-07-23T15:05:42.222Z,12.28
2018-07-23T15:08:10.440Z,14.55
2018-07-23T15:10:38.897Z,12.98
2018-07-23T15:13:07.360Z,12.80
2018-07-23T15:15:36.060Z,13.95
2018-07-23T15:18:05.017Z,12.37
2018-07-23T15:20:33.491Z,12.93
2018-07-23T15:23:02.158Z,12.20
2018-07-23T15:25:31.130Z,11.60
2018-07-23T15:27:59.717Z,13.53
2018-07-23T15:30:28.744Z,13.28
2018-07-23T15:33:03.875Z,12.93
2018-07-23T15:35:32.337Z,12.47
2018-07-23T15:38:00.884Z,12.93
2018-07-23T15:40:29.409Z,9.68
2018-07-23T15:42:59.886Z,13.55
2018-07-23T15:45:28.783Z,12.45
2018-07-23T15:47:57.254Z,12.63
2018-07-23T15:50:26.728Z,13.55
2018-07-23T15:52:55.264Z,10.98
2018-07-23T15:55:23.875Z,12.35
2018-07-23T15:57:52.624Z,11.55
2018-07-23T16:00:21.267Z,9.83
2018-07-23T16:02:49.718Z,11.30
2018-07-23T16:05:18.181Z,12.03
2018-07-23T16:07:46.645Z,11.48
2018-07-23T16:10:15.284Z,10.98
2018-07-23T16:12:43.708Z,12.13
2018-07-23T16:15:12.252Z,11.65
2018-07-23T16:17:40.879Z,11.40
2018-07-23T16:20:09.405Z,12.07
2018-07-23T16:22:37.564Z,11.85
2018-07-23T16:25:07.964Z,11.48
2018-07-23T16:27:36.492Z,11.33
2018-07-23T16:30:06.167Z,12.13
2018-07-23T16:32:34.744Z,12.30
2018-07-23T16:35:09.768Z,11.70
2018-07-23T16:37:38.588Z,11.22
2018-07-23T16:40:08.081Z,11.28
2018-07-23T16:42:37.115Z,11.28
2018-07-23T16:45:05.705Z,9.83
2018-07-23T16:47:34.238Z,12.00
2018-07-23T16:50:02.799Z,12.20
2018-07-23T16:52:31.743Z,12.70
2018-07-23T16:55:00.336Z,9.83
2018-07-23T16:57:28.882Z,11.57
2018-07-23T17:00:01.035Z,11.22
2018-07-23T17:02:29.769Z,11.70
2018-07-23T17:04:58.464Z,11.38
2018-07-23T17:07:26.976Z,12.40
2018-07-23T17:09:56.316Z,11.93
2018-07-23T17:12:24.808Z,11.20
2018-07-23T17:14:53.312Z,11.22
2018-07-23T17:17:21.985Z,11.30
2018-07-23T17:19:51.168Z,11.18
2018-07-23T17:22:19.812Z,11.78
2018-07-23T17:24:48.874Z,11.65
2018-07-23T17:27:23.983Z,11.25
2018-07-23T17:29:52.610Z,10.28
2018-07-23T17:32:21.203Z,11.73
2018-07-23T17:34:50.492Z,11.97
2018-07-23T17:37:19.152Z,11.48
2018-07-23T17:39:47.753Z,11.97
2018-07-23T17:42:16.720Z,11.38
2018-07-23T17:44:45.825Z,17.75
2018-07-23T17:47:14.341Z,11.08
2018-07-23T17:49:42.934Z,12.25
2018-07-23T17:52:11.420Z,13.10
2018-07-23T17:54:40.024Z,12.73
2018-07-23T17:57:08.565Z,8.05
2018-07-23T17:59:37.075Z,10.90
2018-07-23T18:02:05.924Z,11.78
2018-07-23T18:04:35.236Z,12.60
2018-07-23T18:07:03.827Z,12.00
2018-07-23T18:09:32.381Z,8.75
2018-07-23T18:12:00.906Z,12.45
2018-07-23T18:14:29.458Z,11.73
2018-07-23T18:16:58.041Z,12.10
2018-07-23T18:19:27.134Z,11.60
2018-07-23T18:21:55.677Z,11.38
2018-07-23T18:24:24.193Z,10.05
2018-07-23T18:26:52.699Z,9.73
2018-07-23T18:29:21.219Z,11.05
2018-07-23T18:31:50.417Z,11.75
2018-07-23T18:34:19.501Z,11.05
2018-07-23T18:36:47.982Z,11.65
2018-07-23T18:39:16.476Z,11.93
2018-07-23T18:41:45.127Z,11.53
2018-07-23T18:44:13.202Z,11.50
2018-07-23T18:46:42.605Z,12.03
2018-07-23T18:49:23.648Z,9.85
2018-07-23T18:51:53.200Z,11.25
2018-07-23T18:54:24.151Z,11.38
2018-07-23T18:56:54.329Z,11.25
2018-07-23T18:59:22.884Z,11.43
2018-07-23T19:01:52.607Z,12.35
2018-07-23T19:04:21.202Z,10.00
2018-07-23T19:06:50.106Z,9.28
2018-07-23T19:09:19.553Z,8.80
2018-07-23T19:11:49.378Z,8.10
2018-07-23T19:14:18.888Z,9.10
2018-07-23T19:16:47.979Z,10.63
2018-07-23T19:19:16.543Z,8.68
2018-07-23T19:21:45.063Z,7.87
2018-07-23T19:24:13.585Z,13.28
2018-07-23T19:26:42.214Z,8.58
2018-07-23T19:29:10.764Z,8.08
2018-07-23T19:31:39.321Z,7.37
2018-07-23T19:34:07.932Z,10.72
2018-07-23T19:36:36.858Z,8.40
2018-07-23T19:39:10.039Z,6.58
2018-07-23T19:41:39.100Z,5.83
2018-07-23T19:44:08.668Z,10.55
2018-07-23T19:46:37.218Z,11.78
2018-07-23T19:49:05.836Z,10.70
2018-07-23T19:51:34.646Z,11.80
2018-07-23T19:54:03.310Z,11.22
2018-07-23T19:56:32.654Z,10.82
2018-07-23T19:59:01.598Z,9.55
2018-07-23T20:01:30.168Z,9.13
2018-07-23T20:03:58.759Z,17.05
2018-07-23T20:06:28.146Z,10.50
2018-07-23T20:08:57.669Z,11.97
2018-07-23T20:11:26.942Z,9.48
2018-07-23T20:14:02.107Z,11.30
2018-07-23T20:16:30.602Z,13.78
2018-07-23T20:18:59.382Z,9.63
2018-07-23T20:21:27.952Z,9.60
2018-07-23T20:24:00.998Z,7.25
2018-07-23T20:26:29.520Z,6.50
2018-07-23T20:28:58.158Z,9.88
2018-07-23T20:31:26.606Z,7.30
2018-07-23T20:33:55.196Z,18.07
2018-07-23T20:36:55.204Z,13.43
2018-07-23T20:39:24.174Z,11.47
2018-07-23T20:41:53.633Z,11.23
2018-07-23T20:44:22.224Z,15.17
2018-07-23T20:46:50.737Z,13.03
2018-07-23T20:49:19.220Z,14.28
2018-07-23T20:51:47.713Z,15.55
2018-07-23T20:54:16.205Z,10.97
2018-07-23T20:56:44.757Z,9.63
2018-07-23T20:59:13.280Z,11.43
2018-07-23T21:01:41.894Z,8.63
2018-07-23T21:04:10.768Z,7.90
2018-07-23T21:06:39.298Z,9.03
2018-07-23T21:09:08.132Z,7.83
2018-07-23T21:11:37.493Z,10.03
2018-07-23T21:14:06.707Z,12.17
2018-07-23T21:16:35.141Z,9.03
2018-07-23T21:19:03.779Z,12.40
2018-07-23T21:21:40.254Z,7.93
2018-07-23T21:24:08.753Z,8.10
2018-07-23T21:26:38.240Z,8.50
2018-07-23T21:29:08.177Z,13.93
2018-07-23T21:31:36.998Z,8.03
2018-07-23T21:34:05.880Z,7.70
2018-07-23T21:36:34.469Z,10.27
2018-07-23T21:39:03.348Z,9.33
2018-07-23T21:41:31.481Z,11.27
2018-07-23T21:43:59.996Z,14.30
2018-07-23T21:46:28.637Z,11.47
2018-07-23T21:48:57.166Z,10.00
2018-07-23T21:51:25.969Z,15.53
2018-07-23T21:53:55.909Z,8.60
2018-07-23T21:56:24.460Z,8.20
2018-07-23T21:58:52.951Z,12.33
2018-07-23T22:01:22.252Z,8.60
2018-07-23T22:03:50.882Z,7.87
2018-07-23T22:06:23.418Z,10.07
2018-07-23T22:08:53.694Z,12.27
2018-07-23T22:11:22.470Z,12.43
2018-07-23T22:13:51.040Z,8.10
2018-07-23T22:16:20.295Z,12.83
2018-07-23T22:18:48.992Z,8.67
2018-07-23T22:21:17.536Z,10.20
2018-07-23T22:23:46.819Z,10.03
2018-07-23T22:26:15.461Z,13.27
2018-07-23T22:28:44.173Z,9.87
2018-07-23T22:31:12.892Z,11.60
2018-07-23T22:33:42.543Z,15.73
2018-07-23T22:36:11.090Z,13.43
2018-07-23T22:38:39.554Z,17.43
2018-07-23T22:41:08.172Z,12.37
2018-07-23T22:43:37.518Z,14.57
2018-07-23T22:46:06.030Z,15.47
2018-07-23T22:48:34.490Z,16.33
2018-07-23T22:51:02.974Z,18.30
2018-07-23T22:53:31.410Z,16.73
2018-07-23T22:56:00.030Z,17.17
2018-07-23T22:58:28.739Z,14.40
2018-07-23T23:01:04.265Z,12.17
2018-07-23T23:03:33.019Z,8.53
2018-07-23T23:06:01.719Z,13.63
2018-07-23T23:08:30.315Z,12.27
2018-07-23T23:10:59.010Z,11.07
2018-07-23T23:13:27.644Z,14.13
2018-07-23T23:15:55.836Z,10.87
2018-07-23T23:18:24.542Z,14.83
2018-07-23T23:20:53.068Z,9.23
2018-07-23T23:23:21.802Z,13.63
2018-07-23T23:25:50.464Z,22.93
2018-07-23T23:28:19.462Z,13.07
2018-07-23T23:30:47.984Z,23.63
2018-07-23T23:33:16.861Z,14.37
2018-07-23T23:35:45.392Z,11.40
2018-07-23T23:38:15.073Z,9.67
2018-07-23T23:40:43.529Z,15.87
2018-07-23T23:43:12.230Z,12.80
2018-07-23T23:45:41.131Z,22.63
2018-07-23T23:48:09.601Z,16.13
2018-07-23T23:50:38.171Z,15.67
2018-07-23T23:53:06.884Z,11.10
2018-07-23T23:55:35.376Z,15.93
2018-07-23T23:58:04.279Z,15.67
